sensor_id;sensor_type;location;lat;lon;timestamp;temperature;humidity
13458;DHT22;6801;53.018;11.560;2023-11-19T00:00:06;5.80;84.50
13458;DHT22;6801;53.018;11.560;2023-11-19T00:02:37;5.90;84.60
13458;DHT22;6801;53.018;11.560;2023-11-19T00:05:05;5.80;84.60
13458;DHT22;6801;53.018;11.560;2023-11-19T00:07:36;5.80;84.60
13458;DHT22;6801;53.018;11.560;2023-11-19T00:10:08;5.80;84.60
13458;DHT22;6801;53.018;11.560;2023-11-19T00:12:36;5.80;84.60
13458;DHT22;6801;53.018;11.560;2023-11-19T00:15:03;5.80;84.70
13458;DHT22;6801;53.018;11.560;2023-11-19T00:17:31;5.80;84.60
13458;DHT22;6801;53.018;11.560;2023-11-19T00:19:58;5.80;84.70
13458;DHT22;6801;53.018;11.560;2023-11-19T00:22:25;5.80;84.80
13458;DHT22;6801;53.018;11.560;2023-11-19T00:24:55;5.80;84.90
13458;DHT22;6801;53.018;11.560;2023-11-19T00:27:22;5.80;84.70
13458;DHT22;6801;53.018;11.560;2023-11-19T00:29:49;5.80;84.60
13458;DHT22;6801;53.018;11.560;2023-11-19T00:32:16;5.80;84.60
13458;DHT22;6801;53.018;11.560;2023-11-19T00:34:44;5.80;84.70
13458;DHT22;6801;53.018;11.560;2023-11-19T00:37:13;5.80;84.80
13458;DHT22;6801;53.018;11.560;2023-11-19T00:39:41;5.90;84.80
13458;DHT22;6801;53.018;11.560;2023-11-19T00:42:10;5.90;84.70
13458;DHT22;6801;53.018;11.560;2023-11-19T00:44:38;5.90;84.60
13458;DHT22;6801;53.018;11.560;2023-11-19T00:47:05;5.90;84.90
13458;DHT22;6801;53.018;11.560;2023-11-19T00:49:32;5.80;84.90
13458;DHT22;6801;53.018;11.560;2023-11-19T00:51:59;5.90;85.00
13458;DHT22;6801;53.018;11.560;2023-11-19T00:54:28;5.90;85.20
13458;DHT22;6801;53.018;11.560;2023-11-19T00:56:55;5.90;85.10
13458;DHT22;6801;53.018;11.560;2023-11-19T00:59:24;5.90;85.20
13458;DHT22;6801;53.018;11.560;2023-11-19T01:01:51;5.90;85.20
13458;DHT22;6801;53.018;11.560;2023-11-19T01:04:18;5.90;85.20
13458;DHT22;6801;53.018;11.560;2023-11-19T01:06:45;5.90;85.30
13458;DHT22;6801;53.018;11.560;2023-11-19T01:09:12;5.90;85.30
13458;DHT22;6801;53.018;11.560;2023-11-19T01:11:40;5.90;85.30
13458;DHT22;6801;53.018;11.560;2023-11-19T01:14:07;5.90;85.30
13458;DHT22;6801;53.018;11.560;2023-11-19T01:16:36;5.90;85.30
13458;DHT22;6801;53.018;11.560;2023-11-19T01:19:03;5.90;85.40
13458;DHT22;6801;53.018;11.560;2023-11-19T01:21:30;5.90;85.50
13458;DHT22;6801;53.018;11.560;2023-11-19T01:23:58;5.90;85.50
13458;DHT22;6801;53.018;11.560;2023-11-19T01:26:25;5.90;85.40
13458;DHT22;6801;53.018;11.560;2023-11-19T01:28:52;5.90;85.40
13458;DHT22;6801;53.018;11.560;2023-11-19T01:31:19;6.00;85.30
13458;DHT22;6801;53.018;11.560;2023-11-19T01:33:48;6.00;85.30
13458;DHT22;6801;53.018;11.560;2023-11-19T01:36:15;6.00;85.40
13458;DHT22;6801;53.018;11.560;2023-11-19T01:38:42;5.90;85.50
13458;DHT22;6801;53.018;11.560;2023-11-19T01:41:10;6.00;85.70
13458;DHT22;6801;53.018;11.560;2023-11-19T01:43:38;6.00;85.60
13458;DHT22;6801;53.018;11.560;2023-11-19T01:46:07;6.00;85.70
13458;DHT22;6801;53.018;11.560;2023-11-19T01:48:38;6.00;85.70
13458;DHT22;6801;53.018;11.560;2023-11-19T01:51:08;5.90;85.80
13458;DHT22;6801;53.018;11.560;2023-11-19T01:53:37;5.90;85.80
13458;DHT22;6801;53.018;11.560;2023-11-19T01:56:08;5.90;85.70
13458;DHT22;6801;53.018;11.560;2023-11-19T01:58:36;5.90;85.70
13458;DHT22;6801;53.018;11.560;2023-11-19T02:01:05;5.90;85.80
13458;DHT22;6801;53.018;11.560;2023-11-19T02:03:33;6.00;85.80
13458;DHT22;6801;53.018;11.560;2023-11-19T02:06:01;6.00;85.80
13458;DHT22;6801;53.018;11.560;2023-11-19T02:08:29;5.90;85.80
13458;DHT22;6801;53.018;11.560;2023-11-19T02:10:57;6.00;85.80
13458;DHT22;6801;53.018;11.560;2023-11-19T02:13:24;6.00;85.80
13458;DHT22;6801;53.018;11.560;2023-11-19T02:15:51;6.00;85.90
13458;DHT22;6801;53.018;11.560;2023-11-19T02:18:23;6.00;86.00
13458;DHT22;6801;53.018;11.560;2023-11-19T02:20:53;6.00;85.90
13458;DHT22;6801;53.018;11.560;2023-11-19T02:23:21;6.00;85.90
13458;DHT22;6801;53.018;11.560;2023-11-19T02:26:07;6.00;86.00
13458;DHT22;6801;53.018;11.560;2023-11-19T02:28:37;6.00;86.00
13458;DHT22;6801;53.018;11.560;2023-11-19T02:31:05;6.00;86.00
13458;DHT22;6801;53.018;11.560;2023-11-19T02:33:35;6.00;85.90
13458;DHT22;6801;53.018;11.560;2023-11-19T02:36:02;6.10;85.90
13458;DHT22;6801;53.018;11.560;2023-11-19T02:38:30;6.00;86.00
13458;DHT22;6801;53.018;11.560;2023-11-19T02:40:57;6.00;86.10
13458;DHT22;6801;53.018;11.560;2023-11-19T02:43:24;6.00;86.00
13458;DHT22;6801;53.018;11.560;2023-11-19T02:45:53;6.00;86.00
13458;DHT22;6801;53.018;11.560;2023-11-19T02:48:21;6.00;86.00
13458;DHT22;6801;53.018;11.560;2023-11-19T02:50:48;6.00;86.10
13458;DHT22;6801;53.018;11.560;2023-11-19T02:53:15;6.00;86.00
13458;DHT22;6801;53.018;11.560;2023-11-19T02:55:44;6.00;86.00
13458;DHT22;6801;53.018;11.560;2023-11-19T02:58:15;6.00;86.00
13458;DHT22;6801;53.018;11.560;2023-11-19T03:00:49;6.00;86.00
13458;DHT22;6801;53.018;11.560;2023-11-19T03:03:24;6.10;86.00
13458;DHT22;6801;53.018;11.560;2023-11-19T03:05:56;6.10;85.90
13458;DHT22;6801;53.018;11.560;2023-11-19T03:08:23;6.10;85.90
13458;DHT22;6801;53.018;11.560;2023-11-19T03:10:50;6.10;85.90
13458;DHT22;6801;53.018;11.560;2023-11-19T03:13:17;6.10;86.00
13458;DHT22;6801;53.018;11.560;2023-11-19T03:15:44;6.10;86.00
13458;DHT22;6801;53.018;11.560;2023-11-19T03:18:11;6.10;86.10
13458;DHT22;6801;53.018;11.560;2023-11-19T03:20:40;6.10;86.10
13458;DHT22;6801;53.018;11.560;2023-11-19T03:23:07;6.10;86.10
13458;DHT22;6801;53.018;11.560;2023-11-19T03:25:34;6.10;86.10
13458;DHT22;6801;53.018;11.560;2023-11-19T03:28:02;6.10;86.00
13458;DHT22;6801;53.018;11.560;2023-11-19T03:30:30;6.10;86.00
13458;DHT22;6801;53.018;11.560;2023-11-19T03:32:58;6.10;86.10
13458;DHT22;6801;53.018;11.560;2023-11-19T03:35:26;6.10;86.10
13458;DHT22;6801;53.018;11.560;2023-11-19T03:37:55;6.10;86.20
13458;DHT22;6801;53.018;11.560;2023-11-19T03:40:23;6.10;86.20
13458;DHT22;6801;53.018;11.560;2023-11-19T03:42:51;6.20;86.10
13458;DHT22;6801;53.018;11.560;2023-11-19T03:45:18;6.10;86.10
13458;DHT22;6801;53.018;11.560;2023-11-19T03:47:45;6.10;86.10
13458;DHT22;6801;53.018;11.560;2023-11-19T03:50:12;6.10;86.20
13458;DHT22;6801;53.018;11.560;2023-11-19T03:52:41;6.10;86.20
13458;DHT22;6801;53.018;11.560;2023-11-19T03:55:10;6.20;86.10
13458;DHT22;6801;53.018;11.560;2023-11-19T03:57:38;6.20;86.10
13458;DHT22;6801;53.018;11.560;2023-11-19T04:00:06;6.20;86.10
13458;DHT22;6801;53.018;11.560;2023-11-19T04:02:38;6.20;86.10
13458;DHT22;6801;53.018;11.560;2023-11-19T04:05:06;6.20;86.10
13458;DHT22;6801;53.018;11.560;2023-11-19T04:07:33;6.20;86.10
13458;DHT22;6801;53.018;11.560;2023-11-19T04:10:01;6.20;86.20
13458;DHT22;6801;53.018;11.560;2023-11-19T04:12:30;6.20;86.20
13458;DHT22;6801;53.018;11.560;2023-11-19T04:14:57;6.20;86.10
13458;DHT22;6801;53.018;11.560;2023-11-19T04:17:24;6.20;86.20
13458;DHT22;6801;53.018;11.560;2023-11-19T04:19:51;6.20;86.20
13458;DHT22;6801;53.018;11.560;2023-11-19T04:22:18;6.20;86.20
13458;DHT22;6801;53.018;11.560;2023-11-19T04:24:45;6.20;86.30
13458;DHT22;6801;53.018;11.560;2023-11-19T04:27:12;6.20;86.20
13458;DHT22;6801;53.018;11.560;2023-11-19T04:29:41;6.20;86.20
13458;DHT22;6801;53.018;11.560;2023-11-19T04:32:08;6.20;86.20
13458;DHT22;6801;53.018;11.560;2023-11-19T04:34:35;6.30;86.10
13458;DHT22;6801;53.018;11.560;2023-11-19T04:37:03;6.30;86.00
13458;DHT22;6801;53.018;11.560;2023-11-19T04:39:30;6.30;86.00
13458;DHT22;6801;53.018;11.560;2023-11-19T04:41:57;6.30;86.10
13458;DHT22;6801;53.018;11.560;2023-11-19T04:44:25;6.20;86.20
13458;DHT22;6801;53.018;11.560;2023-11-19T04:46:53;6.20;86.20
13458;DHT22;6801;53.018;11.560;2023-11-19T04:49:20;6.30;86.20
13458;DHT22;6801;53.018;11.560;2023-11-19T04:51:47;6.20;86.20
13458;DHT22;6801;53.018;11.560;2023-11-19T04:54:14;6.20;86.30
13458;DHT22;6801;53.018;11.560;2023-11-19T04:56:45;6.30;86.30
13458;DHT22;6801;53.018;11.560;2023-11-19T04:59:12;6.20;86.40
13458;DHT22;6801;53.018;11.560;2023-11-19T05:01:40;6.20;86.40
13458;DHT22;6801;53.018;11.560;2023-11-19T05:04:08;6.20;86.30
13458;DHT22;6801;53.018;11.560;2023-11-19T05:06:36;6.30;86.30
13458;DHT22;6801;53.018;11.560;2023-11-19T05:09:03;6.30;86.40
13458;DHT22;6801;53.018;11.560;2023-11-19T05:11:30;6.30;86.30
13458;DHT22;6801;53.018;11.560;2023-11-19T05:13:58;6.30;86.30
13458;DHT22;6801;53.018;11.560;2023-11-19T05:16:25;6.30;86.30
13458;DHT22;6801;53.018;11.560;2023-11-19T05:18:53;6.30;86.40
13458;DHT22;6801;53.018;11.560;2023-11-19T05:21:21;6.30;86.50
13458;DHT22;6801;53.018;11.560;2023-11-19T05:23:49;6.30;86.50
13458;DHT22;6801;53.018;11.560;2023-11-19T05:26:20;6.30;86.60
13458;DHT22;6801;53.018;11.560;2023-11-19T05:28:48;6.30;86.60
13458;DHT22;6801;53.018;11.560;2023-11-19T05:31:15;6.30;86.60
13458;DHT22;6801;53.018;11.560;2023-11-19T05:33:42;6.30;86.60
13458;DHT22;6801;53.018;11.560;2023-11-19T05:36:11;6.30;86.60
13458;DHT22;6801;53.018;11.560;2023-11-19T05:38:39;6.30;86.60
13458;DHT22;6801;53.018;11.560;2023-11-19T05:41:07;6.30;86.60
13458;DHT22;6801;53.018;11.560;2023-11-19T05:43:34;6.30;86.60
13458;DHT22;6801;53.018;11.560;2023-11-19T05:46:01;6.40;86.40
13458;DHT22;6801;53.018;11.560;2023-11-19T05:48:28;6.40;86.40
13458;DHT22;6801;53.018;11.560;2023-11-19T05:50:55;6.40;86.50
13458;DHT22;6801;53.018;11.560;2023-11-19T05:53:22;6.40;86.50
13458;DHT22;6801;53.018;11.560;2023-11-19T05:55:51;6.40;86.60
13458;DHT22;6801;53.018;11.560;2023-11-19T05:58:23;6.40;86.60
13458;DHT22;6801;53.018;11.560;2023-11-19T06:00:52;6.40;86.60
13458;DHT22;6801;53.018;11.560;2023-11-19T06:03:20;6.40;86.50
13458;DHT22;6801;53.018;11.560;2023-11-19T06:05:48;6.40;86.50
13458;DHT22;6801;53.018;11.560;2023-11-19T06:08:16;6.40;86.50
13458;DHT22;6801;53.018;11.560;2023-11-19T06:10:47;6.40;86.50
13458;DHT22;6801;53.018;11.560;2023-11-19T06:13:18;6.40;86.50
13458;DHT22;6801;53.018;11.560;2023-11-19T06:15:45;6.40;86.50
13458;DHT22;6801;53.018;11.560;2023-11-19T06:18:13;6.40;86.50
13458;DHT22;6801;53.018;11.560;2023-11-19T06:20:41;6.50;86.50
13458;DHT22;6801;53.018;11.560;2023-11-19T06:23:09;6.50;86.60
13458;DHT22;6801;53.018;11.560;2023-11-19T06:25:37;6.50;86.60
13458;DHT22;6801;53.018;11.560;2023-11-19T06:28:04;6.50;86.60
13458;DHT22;6801;53.018;11.560;2023-11-19T06:30:33;6.50;86.70
13458;DHT22;6801;53.018;11.560;2023-11-19T06:33:02;6.50;86.70
13458;DHT22;6801;53.018;11.560;2023-11-19T06:35:29;6.50;86.70
13458;DHT22;6801;53.018;11.560;2023-11-19T06:38:02;6.50;86.70
13458;DHT22;6801;53.018;11.560;2023-11-19T06:40:30;6.50;86.60
13458;DHT22;6801;53.018;11.560;2023-11-19T06:42:57;6.50;86.60
13458;DHT22;6801;53.018;11.560;2023-11-19T06:45:24;6.50;86.60
13458;DHT22;6801;53.018;11.560;2023-11-19T06:47:53;6.50;86.70
13458;DHT22;6801;53.018;11.560;2023-11-19T06:50:20;6.50;86.60
13458;DHT22;6801;53.018;11.560;2023-11-19T06:52:47;6.50;86.70
13458;DHT22;6801;53.018;11.560;2023-11-19T06:55:14;6.50;86.70
13458;DHT22;6801;53.018;11.560;2023-11-19T06:57:41;6.50;86.60
13458;DHT22;6801;53.018;11.560;2023-11-19T07:00:09;6.60;86.60
13458;DHT22;6801;53.018;11.560;2023-11-19T07:02:37;6.60;86.60
13458;DHT22;6801;53.018;11.560;2023-11-19T07:05:07;6.60;86.50
13458;DHT22;6801;53.018;11.560;2023-11-19T07:07:34;6.70;86.60
13458;DHT22;6801;53.018;11.560;2023-11-19T07:10:02;6.60;86.60
13458;DHT22;6801;53.018;11.560;2023-11-19T07:12:30;6.70;86.50
13458;DHT22;6801;53.018;11.560;2023-11-19T07:14:57;6.70;86.70
13458;DHT22;6801;53.018;11.560;2023-11-19T07:17:24;6.70;86.70
13458;DHT22;6801;53.018;11.560;2023-11-19T07:19:53;6.70;86.90
13458;DHT22;6801;53.018;11.560;2023-11-19T07:22:21;6.80;87.10
13458;DHT22;6801;53.018;11.560;2023-11-19T07:24:48;6.80;87.20
13458;DHT22;6801;53.018;11.560;2023-11-19T07:27:16;6.90;87.40
13458;DHT22;6801;53.018;11.560;2023-11-19T07:29:43;6.90;87.50
13458;DHT22;6801;53.018;11.560;2023-11-19T07:32:11;6.90;87.60
13458;DHT22;6801;53.018;11.560;2023-11-19T07:34:39;7.00;87.50
13458;DHT22;6801;53.018;11.560;2023-11-19T07:37:06;7.00;87.50
13458;DHT22;6801;53.018;11.560;2023-11-19T07:39:35;7.00;87.40
13458;DHT22;6801;53.018;11.560;2023-11-19T07:42:04;7.00;87.30
13458;DHT22;6801;53.018;11.560;2023-11-19T07:44:31;7.10;87.20
13458;DHT22;6801;53.018;11.560;2023-11-19T07:46:58;7.10;87.20
13458;DHT22;6801;53.018;11.560;2023-11-19T07:49:25;7.10;87.20
13458;DHT22;6801;53.018;11.560;2023-11-19T07:51:52;7.20;87.20
13458;DHT22;6801;53.018;11.560;2023-11-19T07:54:19;7.20;87.20
13458;DHT22;6801;53.018;11.560;2023-11-19T07:56:48;7.20;87.10
13458;DHT22;6801;53.018;11.560;2023-11-19T07:59:16;7.30;87.20
13458;DHT22;6801;53.018;11.560;2023-11-19T08:01:43;7.30;87.10
13458;DHT22;6801;53.018;11.560;2023-11-19T08:04:10;7.30;87.10
13458;DHT22;6801;53.018;11.560;2023-11-19T08:06:37;7.40;87.10
13458;DHT22;6801;53.018;11.560;2023-11-19T08:09:04;7.40;87.00
13458;DHT22;6801;53.018;11.560;2023-11-19T08:11:32;7.40;87.10
13458;DHT22;6801;53.018;11.560;2023-11-19T08:14:00;7.40;87.10
13458;DHT22;6801;53.018;11.560;2023-11-19T08:16:28;7.50;87.10
13458;DHT22;6801;53.018;11.560;2023-11-19T08:18:55;7.50;87.10
13458;DHT22;6801;53.018;11.560;2023-11-19T08:21:24;7.50;87.10
13458;DHT22;6801;53.018;11.560;2023-11-19T08:23:52;7.50;87.10
13458;DHT22;6801;53.018;11.560;2023-11-19T08:26:19;7.50;87.10
13458;DHT22;6801;53.018;11.560;2023-11-19T08:28:46;7.50;87.10
13458;DHT22;6801;53.018;11.560;2023-11-19T08:31:15;7.60;87.00
13458;DHT22;6801;53.018;11.560;2023-11-19T08:33:42;7.60;87.00
13458;DHT22;6801;53.018;11.560;2023-11-19T08:36:10;7.60;87.00
13458;DHT22;6801;53.018;11.560;2023-11-19T08:38:41;7.70;87.00
13458;DHT22;6801;53.018;11.560;2023-11-19T08:41:08;7.70;87.10
13458;DHT22;6801;53.018;11.560;2023-11-19T08:43:36;7.80;87.10
13458;DHT22;6801;53.018;11.560;2023-11-19T08:46:04;7.80;87.00
13458;DHT22;6801;53.018;11.560;2023-11-19T08:48:37;7.80;87.00
13458;DHT22;6801;53.018;11.560;2023-11-19T08:51:04;7.90;87.00
13458;DHT22;6801;53.018;11.560;2023-11-19T08:53:32;8.00;87.00
13458;DHT22;6801;53.018;11.560;2023-11-19T08:55:59;8.00;86.90
13458;DHT22;6801;53.018;11.560;2023-11-19T08:58:26;8.00;87.00
13458;DHT22;6801;53.018;11.560;2023-11-19T09:00:53;8.10;87.10
13458;DHT22;6801;53.018;11.560;2023-11-19T09:03:20;8.20;87.00
13458;DHT22;6801;53.018;11.560;2023-11-19T09:05:48;8.20;87.00
13458;DHT22;6801;53.018;11.560;2023-11-19T09:08:15;8.30;87.00
13458;DHT22;6801;53.018;11.560;2023-11-19T09:10:42;8.30;86.90
13458;DHT22;6801;53.018;11.560;2023-11-19T09:13:09;8.30;86.90
13458;DHT22;6801;53.018;11.560;2023-11-19T09:15:36;8.40;86.90
13458;DHT22;6801;53.018;11.560;2023-11-19T09:18:05;8.50;87.00
13458;DHT22;6801;53.018;11.560;2023-11-19T09:20:32;8.50;87.00
13458;DHT22;6801;53.018;11.560;2023-11-19T09:23:05;8.50;86.90
13458;DHT22;6801;53.018;11.560;2023-11-19T09:25:34;8.60;86.90
13458;DHT22;6801;53.018;11.560;2023-11-19T09:28:01;8.60;86.80
13458;DHT22;6801;53.018;11.560;2023-11-19T09:30:28;8.70;86.80
13458;DHT22;6801;53.018;11.560;2023-11-19T09:32:55;8.70;86.80
13458;DHT22;6801;53.018;11.560;2023-11-19T09:35:22;8.80;87.10
13458;DHT22;6801;53.018;11.560;2023-11-19T09:37:49;8.80;87.00
13458;DHT22;6801;53.018;11.560;2023-11-19T09:40:18;8.80;87.00
13458;DHT22;6801;53.018;11.560;2023-11-19T09:42:47;8.90;87.10
13458;DHT22;6801;53.018;11.560;2023-11-19T09:45:15;9.00;87.90
13458;DHT22;6801;53.018;11.560;2023-11-19T09:47:44;9.00;87.00
13458;DHT22;6801;53.018;11.560;2023-11-19T09:50:15;9.00;86.90
13458;DHT22;6801;53.018;11.560;2023-11-19T09:52:43;9.00;87.00
13458;DHT22;6801;53.018;11.560;2023-11-19T09:55:11;9.10;87.00
13458;DHT22;6801;53.018;11.560;2023-11-19T09:57:40;9.10;87.20
13458;DHT22;6801;53.018;11.560;2023-11-19T10:00:08;9.20;87.20
13458;DHT22;6801;53.018;11.560;2023-11-19T10:02:36;9.20;87.20
13458;DHT22;6801;53.018;11.560;2023-11-19T10:05:06;9.30;87.30
13458;DHT22;6801;53.018;11.560;2023-11-19T10:07:34;9.40;87.20
13458;DHT22;6801;53.018;11.560;2023-11-19T10:10:02;9.40;87.10
13458;DHT22;6801;53.018;11.560;2023-11-19T10:12:30;9.40;87.10
13458;DHT22;6801;53.018;11.560;2023-11-19T10:14:59;9.50;87.30
13458;DHT22;6801;53.018;11.560;2023-11-19T10:17:29;9.50;87.30
13458;DHT22;6801;53.018;11.560;2023-11-19T10:19:59;9.60;87.10
13458;DHT22;6801;53.018;11.560;2023-11-19T10:22:27;9.60;87.00
13458;DHT22;6801;53.018;11.560;2023-11-19T10:24:55;9.60;87.00
13458;DHT22;6801;53.018;11.560;2023-11-19T10:27:24;9.70;86.90
13458;DHT22;6801;53.018;11.560;2023-11-19T10:29:51;9.70;86.80
13458;DHT22;6801;53.018;11.560;2023-11-19T10:32:20;9.70;86.90
13458;DHT22;6801;53.018;11.560;2023-11-19T10:34:47;9.70;87.10
13458;DHT22;6801;53.018;11.560;2023-11-19T10:37:27;9.70;87.30
13458;DHT22;6801;53.018;11.560;2023-11-19T10:39:55;9.80;87.10
13458;DHT22;6801;53.018;11.560;2023-11-19T10:42:22;9.80;87.00
13458;DHT22;6801;53.018;11.560;2023-11-19T10:44:49;9.80;87.10
13458;DHT22;6801;53.018;11.560;2023-11-19T10:47:20;9.90;87.10
13458;DHT22;6801;53.018;11.560;2023-11-19T10:49:49;9.90;86.90
13458;DHT22;6801;53.018;11.560;2023-11-19T10:52:18;9.90;86.90
13458;DHT22;6801;53.018;11.560;2023-11-19T10:54:49;10.00;87.10
13458;DHT22;6801;53.018;11.560;2023-11-19T10:57:20;10.00;87.00
13458;DHT22;6801;53.018;11.560;2023-11-19T10:59:47;10.00;86.90
13458;DHT22;6801;53.018;11.560;2023-11-19T11:02:21;10.00;86.90
13458;DHT22;6801;53.018;11.560;2023-11-19T11:04:49;10.00;86.80
13458;DHT22;6801;53.018;11.560;2023-11-19T11:07:18;10.00;86.70
13458;DHT22;6801;53.018;11.560;2023-11-19T11:09:47;10.00;86.70
13458;DHT22;6801;53.018;11.560;2023-11-19T11:12:16;10.10;86.60
13458;DHT22;6801;53.018;11.560;2023-11-19T11:14:44;10.10;86.60
13458;DHT22;6801;53.018;11.560;2023-11-19T11:17:15;10.10;86.60
13458;DHT22;6801;53.018;11.560;2023-11-19T11:19:45;10.10;86.40
13458;DHT22;6801;53.018;11.560;2023-11-19T11:22:14;10.10;86.50
13458;DHT22;6801;53.018;11.560;2023-11-19T11:27:56;10.20;86.40
13458;DHT22;6801;53.018;11.560;2023-11-19T11:30:32;10.20;86.60
13458;DHT22;6801;53.018;11.560;2023-11-19T11:33:10;10.20;86.70
13458;DHT22;6801;53.018;11.560;2023-11-19T11:35:49;10.20;86.80
13458;DHT22;6801;53.018;11.560;2023-11-19T11:43:48;10.40;86.50
13458;DHT22;6801;53.018;11.560;2023-11-19T11:46:54;10.40;86.50
13458;DHT22;6801;53.018;11.560;2023-11-19T11:49:25;10.40;86.50
13458;DHT22;6801;53.018;11.560;2023-11-19T11:52:01;10.50;86.70
13458;DHT22;6801;53.018;11.560;2023-11-19T11:54:29;10.50;86.60
13458;DHT22;6801;53.018;11.560;2023-11-19T11:57:04;10.50;86.50
13458;DHT22;6801;53.018;11.560;2023-11-19T11:59:37;10.50;86.60
13458;DHT22;6801;53.018;11.560;2023-11-19T12:02:07;10.50;86.40
13458;DHT22;6801;53.018;11.560;2023-11-19T12:04:35;10.70;86.20
13458;DHT22;6801;53.018;11.560;2023-11-19T12:07:08;10.70;86.10
13458;DHT22;6801;53.018;11.560;2023-11-19T12:09:37;10.80;85.90
13458;DHT22;6801;53.018;11.560;2023-11-19T12:12:18;10.80;85.90
13458;DHT22;6801;53.018;11.560;2023-11-19T12:15:03;10.80;86.00
13458;DHT22;6801;53.018;11.560;2023-11-19T12:17:46;10.70;86.20
13458;DHT22;6801;53.018;11.560;2023-11-19T12:20:16;10.70;86.50
13458;DHT22;6801;53.018;11.560;2023-11-19T12:22:46;10.70;86.30
13458;DHT22;6801;53.018;11.560;2023-11-19T12:25:15;10.70;86.30
13458;DHT22;6801;53.018;11.560;2023-11-19T12:27:44;10.80;86.50
13458;DHT22;6801;53.018;11.560;2023-11-19T12:30:12;10.80;86.40
13458;DHT22;6801;53.018;11.560;2023-11-19T12:32:44;10.80;86.40
13458;DHT22;6801;53.018;11.560;2023-11-19T12:35:12;10.80;86.50
13458;DHT22;6801;53.018;11.560;2023-11-19T12:37:41;10.80;86.60
13458;DHT22;6801;53.018;11.560;2023-11-19T12:40:16;10.80;86.60
13458;DHT22;6801;53.018;11.560;2023-11-19T12:42:44;10.80;86.40
13458;DHT22;6801;53.018;11.560;2023-11-19T12:45:12;10.80;86.30
13458;DHT22;6801;53.018;11.560;2023-11-19T12:47:39;10.90;86.30
13458;DHT22;6801;53.018;11.560;2023-11-19T12:50:07;10.90;86.10
13458;DHT22;6801;53.018;11.560;2023-11-19T12:52:35;10.90;86.10
13458;DHT22;6801;53.018;11.560;2023-11-19T12:55:03;10.90;86.10
13458;DHT22;6801;53.018;11.560;2023-11-19T12:57:40;11.00;85.70
13458;DHT22;6801;53.018;11.560;2023-11-19T13:00:18;11.00;85.70
13458;DHT22;6801;53.018;11.560;2023-11-19T13:02:47;10.90;85.90
13458;DHT22;6801;53.018;11.560;2023-11-19T13:05:25;10.90;85.90
13458;DHT22;6801;53.018;11.560;2023-11-19T13:08:00;10.90;86.10
13458;DHT22;6801;53.018;11.560;2023-11-19T13:10:28;10.90;86.00
13458;DHT22;6801;53.018;11.560;2023-11-19T13:13:07;10.90;85.90
13458;DHT22;6801;53.018;11.560;2023-11-19T13:15:35;10.90;86.00
13458;DHT22;6801;53.018;11.560;2023-11-19T13:18:03;10.80;86.00
13458;DHT22;6801;53.018;11.560;2023-11-19T13:20:30;10.90;86.00
13458;DHT22;6801;53.018;11.560;2023-11-19T13:22:58;10.90;86.00
13458;DHT22;6801;53.018;11.560;2023-11-19T13:25:25;10.90;85.80
13458;DHT22;6801;53.018;11.560;2023-11-19T13:27:53;10.90;85.60
13458;DHT22;6801;53.018;11.560;2023-11-19T13:30:22;10.90;85.60
13458;DHT22;6801;53.018;11.560;2023-11-19T13:32:50;10.90;85.70
13458;DHT22;6801;53.018;11.560;2023-11-19T13:35:17;10.90;85.70
13458;DHT22;6801;53.018;11.560;2023-11-19T13:37:44;10.90;85.70
13458;DHT22;6801;53.018;11.560;2023-11-19T13:40:12;10.80;85.90
13458;DHT22;6801;53.018;11.560;2023-11-19T13:42:42;10.80;86.00
13458;DHT22;6801;53.018;11.560;2023-11-19T13:45:10;10.80;86.10
13458;DHT22;6801;53.018;11.560;2023-11-19T13:47:43;10.80;86.20
13458;DHT22;6801;53.018;11.560;2023-11-19T13:50:11;10.80;86.60
13458;DHT22;6801;53.018;11.560;2023-11-19T13:52:39;10.80;86.30
13458;DHT22;6801;53.018;11.560;2023-11-19T13:55:08;10.80;86.40
13458;DHT22;6801;53.018;11.560;2023-11-19T13:57:36;10.80;86.30
13458;DHT22;6801;53.018;11.560;2023-11-19T14:00:04;10.80;86.20
13458;DHT22;6801;53.018;11.560;2023-11-19T14:02:34;10.80;86.20
13458;DHT22;6801;53.018;11.560;2023-11-19T14:05:03;10.90;86.10
13458;DHT22;6801;53.018;11.560;2023-11-19T14:07:31;10.90;86.10
13458;DHT22;6801;53.018;11.560;2023-11-19T14:09:58;10.90;86.20
13458;DHT22;6801;53.018;11.560;2023-11-19T14:12:25;10.90;85.90
13458;DHT22;6801;53.018;11.560;2023-11-19T14:14:52;10.90;86.00
13458;DHT22;6801;53.018;11.560;2023-11-19T14:17:20;10.80;86.00
13458;DHT22;6801;53.018;11.560;2023-11-19T14:19:47;10.90;86.00
13458;DHT22;6801;53.018;11.560;2023-11-19T14:22:15;10.90;85.90
13458;DHT22;6801;53.018;11.560;2023-11-19T14:24:42;10.90;85.80
13458;DHT22;6801;53.018;11.560;2023-11-19T14:27:10;10.90;85.60
13458;DHT22;6801;53.018;11.560;2023-11-19T14:29:37;10.90;85.60
13458;DHT22;6801;53.018;11.560;2023-11-19T14:32:05;10.90;85.80
13458;DHT22;6801;53.018;11.560;2023-11-19T14:34:33;10.90;85.90
13458;DHT22;6801;53.018;11.560;2023-11-19T14:37:00;10.90;85.80
13458;DHT22;6801;53.018;11.560;2023-11-19T14:39:28;10.90;86.00
13458;DHT22;6801;53.018;11.560;2023-11-19T14:41:56;10.90;86.00
13458;DHT22;6801;53.018;11.560;2023-11-19T14:44:26;10.90;86.10
13458;DHT22;6801;53.018;11.560;2023-11-19T14:46:55;10.90;85.90
13458;DHT22;6801;53.018;11.560;2023-11-19T14:49:22;10.90;85.90
13458;DHT22;6801;53.018;11.560;2023-11-19T14:51:50;11.00;85.60
13458;DHT22;6801;53.018;11.560;2023-11-19T14:54:17;10.90;85.60
13458;DHT22;6801;53.018;11.560;2023-11-19T14:56:46;10.90;85.80
13458;DHT22;6801;53.018;11.560;2023-11-19T14:59:13;10.90;85.80
13458;DHT22;6801;53.018;11.560;2023-11-19T15:01:40;10.90;85.80
13458;DHT22;6801;53.018;11.560;2023-11-19T15:04:07;10.90;85.70
13458;DHT22;6801;53.018;11.560;2023-11-19T15:06:34;10.90;85.80
13458;DHT22;6801;53.018;11.560;2023-11-19T15:09:01;10.90;85.80
13458;DHT22;6801;53.018;11.560;2023-11-19T15:11:28;10.90;85.90
13458;DHT22;6801;53.018;11.560;2023-11-19T15:13:57;10.90;85.90
13458;DHT22;6801;53.018;11.560;2023-11-19T15:16:24;10.90;85.90
13458;DHT22;6801;53.018;11.560;2023-11-19T15:18:57;10.90;85.90
13458;DHT22;6801;53.018;11.560;2023-11-19T15:21:25;10.90;85.70
13458;DHT22;6801;53.018;11.560;2023-11-19T15:23:54;10.90;85.60
13458;DHT22;6801;53.018;11.560;2023-11-19T15:26:22;10.90;85.70
13458;DHT22;6801;53.018;11.560;2023-11-19T15:28:49;10.80;86.00
13458;DHT22;6801;53.018;11.560;2023-11-19T15:31:17;10.90;85.90
13458;DHT22;6801;53.018;11.560;2023-11-19T15:33:44;10.80;86.00
13458;DHT22;6801;53.018;11.560;2023-11-19T15:36:12;10.90;86.00
13458;DHT22;6801;53.018;11.560;2023-11-19T15:38:40;10.80;85.90
13458;DHT22;6801;53.018;11.560;2023-11-19T15:41:07;10.90;85.80
13458;DHT22;6801;53.018;11.560;2023-11-19T15:43:34;10.90;85.80
13458;DHT22;6801;53.018;11.560;2023-11-19T15:46:05;10.90;85.90
13458;DHT22;6801;53.018;11.560;2023-11-19T15:48:34;10.90;85.80
13458;DHT22;6801;53.018;11.560;2023-11-19T15:51:02;10.90;85.80
13458;DHT22;6801;53.018;11.560;2023-11-19T15:53:29;10.90;85.80
13458;DHT22;6801;53.018;11.560;2023-11-19T15:55:56;11.00;85.80
13458;DHT22;6801;53.018;11.560;2023-11-19T15:58:23;11.00;85.60